Portada
METAR-TAF:

METAR-TAF

Aeropuertos :

Aeropuerto de Génova

Génova, Italia

latitud: 44-25N, longitud: 008-51E, altitud: 2 m

Observación

El informe se hizo hace 41 minutos, a las 07:50 UTC
Viento 11 kt del norte-noreste
Temperatura 8°C
Humedad 81%
Presión 1018 hPa
Visibilidad 10 km o más
Cielo cubierto a una altura de 5500 ft

METAR: LIMJ 160750Z 03011KT 9999 OVC055 08/05 Q1018

Hora: 10:31 (08:31 UTC)

Pronóstico

El informe se hizo hace 3 horas y 31 minutos, a las 05:00 UTC
Pronóstico válido del 16 a las 06 UTC al 17 a las 06 UTC
Viento 15 kt del norte-noreste
Visibilidad 10 km o más
Cielo nuboso a una altura de 3000 ft

TAF: LIMJ 160500Z 1606/1706 03015KT 9999 BKN030

Observaciones y pronósticos meteorológicos de más de 4000 aeropuertos (mensajes METAR y TAF).

Los puntos amarillos y rojos representan las estaciones disponibles.

Ponga el ratón en el punto deseado para ver el nombre de la estación.

Haga clic para ver las observaciones y los pronósticos meteorológicos.

Para cambiar el mapa : haga clic en los botones verdes con una cruz de color negro para hacer un zoom, en el botón verde con un guión para alejar o en las flechas verdes para mapas adyacentes.


METAR-TAF: